createdAt,value
2023-04-28T00:00:37.854Z,85.23
2023-04-28T00:03:05.300Z,85.30
2023-04-28T00:05:32.446Z,85.65
2023-04-28T00:07:59.505Z,85.73
2023-04-28T00:10:26.491Z,85.77
2023-04-28T00:12:53.433Z,86.00
2023-04-28T00:15:21.036Z,86.48
2023-04-28T00:17:48.110Z,86.73
2023-04-28T00:20:15.096Z,87.02
2023-04-28T00:22:42.111Z,87.48
2023-04-28T00:25:09.638Z,87.77
2023-04-28T00:27:36.523Z,87.86
2023-04-28T00:30:04.091Z,88.43
2023-04-28T00:32:34.057Z,88.51
2023-04-28T00:35:02.317Z,88.59
2023-04-28T00:37:31.660Z,89.15
2023-04-28T00:39:58.716Z,89.46
2023-04-28T00:42:25.815Z,89.27
2023-04-28T00:44:52.838Z,89.63
2023-04-28T00:47:20.934Z,89.75
2023-04-28T00:49:49.709Z,90.04
2023-04-28T00:52:16.675Z,90.35
2023-04-28T00:54:43.861Z,90.77
2023-04-28T00:57:10.941Z,90.94
2023-04-28T00:59:38.387Z,91.22
2023-04-28T01:02:06.592Z,91.46
2023-04-28T01:04:33.873Z,91.37
2023-04-28T01:07:01.839Z,91.82
2023-04-28T01:09:29.068Z,91.82
2023-04-28T01:11:58.439Z,92.35
2023-04-28T01:14:46.870Z,92.14
2023-04-28T01:17:13.859Z,92.55
2023-04-28T01:19:41.375Z,92.67
2023-04-28T01:22:10.746Z,92.78
2023-04-28T01:24:37.819Z,92.74
2023-04-28T01:27:07.252Z,92.89
2023-04-28T01:29:34.301Z,93.06
2023-04-28T01:32:01.297Z,92.76
2023-04-28T01:34:28.365Z,93.17
2023-04-28T01:36:55.480Z,93.33
2023-04-28T01:39:22.550Z,93.30
2023-04-28T01:41:49.587Z,93.17
2023-04-28T01:44:16.790Z,93.17
2023-04-28T01:46:44.153Z,92.90
2023-04-28T01:49:11.182Z,93.01
2023-04-28T01:51:38.234Z,92.87
2023-04-28T01:54:05.696Z,93.18
2023-04-28T01:56:32.681Z,93.30
2023-04-28T01:59:00.894Z,93.67
2023-04-28T02:01:28.023Z,93.89
2023-04-28T02:03:55.982Z,93.76
2023-04-28T02:06:24.177Z,93.95
2023-04-28T02:08:51.207Z,93.96
2023-04-28T02:11:18.179Z,94.31
2023-04-28T02:13:45.320Z,94.39
2023-04-28T02:16:12.520Z,94.96
2023-04-28T02:18:39.521Z,95.22
2023-04-28T02:21:11.447Z,95.07
2023-04-28T02:23:39.754Z,95.31
2023-04-28T02:26:06.849Z,95.59
2023-04-28T02:28:33.808Z,95.65
2023-04-28T02:31:10.931Z,95.80
2023-04-28T02:33:38.110Z,95.23
2023-04-28T02:36:05.735Z,95.19
2023-04-28T02:38:32.781Z,95.37
2023-04-28T02:41:05.094Z,95.30
2023-04-28T02:43:32.777Z,95.52
2023-04-28T02:46:00.312Z,95.52
2023-04-28T02:48:27.427Z,95.18
2023-04-28T02:50:54.471Z,95.33
2023-04-28T02:53:22.003Z,95.58
2023-04-28T02:55:49.637Z,95.84
2023-04-28T02:58:18.462Z,95.72
2023-04-28T03:00:47.048Z,95.48
2023-04-28T03:03:15.250Z,95.49
2023-04-28T03:05:42.668Z,95.43
2023-04-28T03:08:10.922Z,95.59
2023-04-28T03:10:38.103Z,95.76
2023-04-28T03:13:05.490Z,95.86
2023-04-28T03:15:32.474Z,95.93
2023-04-28T03:17:59.587Z,96.04
2023-04-28T03:20:26.614Z,95.83
2023-04-28T03:22:53.834Z,95.94
2023-04-28T03:25:21.001Z,95.58
2023-04-28T03:27:51.375Z,95.50
2023-04-28T03:30:18.437Z,95.63
2023-04-28T03:32:46.589Z,95.40
2023-04-28T03:35:13.986Z,95.54
2023-04-28T03:37:42.005Z,95.64
2023-04-28T03:40:09.586Z,95.57
2023-04-28T03:42:56.232Z,95.48
2023-04-28T03:45:27.976Z,95.49
2023-04-28T03:47:55.007Z,95.53
2023-04-28T03:50:22.919Z,95.41
2023-04-28T03:52:50.972Z,94.65
2023-04-28T03:55:18.175Z,94.41
2023-04-28T03:57:45.239Z,94.10
2023-04-28T04:00:13.168Z,93.59
2023-04-28T04:02:43.467Z,93.22
2023-04-28T04:05:10.951Z,93.26
2023-04-28T04:07:38.172Z,93.29
2023-04-28T04:10:06.189Z,93.17
2023-04-28T04:12:35.257Z,93.16
2023-04-28T04:15:02.648Z,92.80
2023-04-28T04:17:32.464Z,92.04
2023-04-28T04:19:59.522Z,91.72
2023-04-28T04:22:27.364Z,89.95
2023-04-28T04:24:54.553Z,88.60
2023-04-28T04:27:22.452Z,87.49
2023-04-28T04:29:49.475Z,86.93
2023-04-28T04:32:16.542Z,87.12
2023-04-28T04:34:43.464Z,87.23
2023-04-28T04:37:11.180Z,87.66
2023-04-28T04:39:45.192Z,87.65
2023-04-28T04:42:24.099Z,87.73
2023-04-28T04:45:14.414Z,87.79
2023-04-28T04:47:42.522Z,87.74
2023-04-28T04:50:09.662Z,87.00
2023-04-28T04:52:37.450Z,86.47
2023-04-28T04:55:05.501Z,86.15
2023-04-28T04:57:33.418Z,86.08
2023-04-28T05:00:10.853Z,85.94
2023-04-28T05:02:38.788Z,86.49
2023-04-28T05:05:19.846Z,86.63
2023-04-28T05:07:52.701Z,86.74
2023-04-28T05:10:21.545Z,87.04
2023-04-28T05:12:49.322Z,87.22
2023-04-28T05:15:18.280Z,87.64
2023-04-28T05:17:59.713Z,87.43
2023-04-28T05:20:26.743Z,87.50
2023-04-28T05:22:55.655Z,87.89
2023-04-28T05:25:22.663Z,87.57
2023-04-28T05:27:49.545Z,87.29
2023-04-28T05:30:16.657Z,87.21
2023-04-28T05:32:43.769Z,87.15
2023-04-28T05:35:10.774Z,87.01
2023-04-28T05:37:38.256Z,87.28
2023-04-28T05:40:06.021Z,87.01
2023-04-28T05:42:33.650Z,86.99
2023-04-28T05:45:01.158Z,87.09
2023-04-28T05:47:31.282Z,87.73
2023-04-28T05:49:58.762Z,88.13
2023-04-28T05:52:25.765Z,88.63
2023-04-28T05:54:53.403Z,89.01
2023-04-28T05:57:20.899Z,89.31
2023-04-28T05:59:47.866Z,90.23
2023-04-28T06:02:15.237Z,90.69
2023-04-28T06:04:42.936Z,91.39
2023-04-28T06:07:10.796Z,92.58
2023-04-28T06:09:38.617Z,93.49
2023-04-28T06:12:06.341Z,93.87
2023-04-28T06:14:33.391Z,94.15
2023-04-28T06:17:00.615Z,94.15
2023-04-28T06:19:27.674Z,93.82
2023-04-28T06:21:54.609Z,93.28
2023-04-28T06:24:21.700Z,92.92
2023-04-28T06:26:49.183Z,91.96
2023-04-28T06:29:16.366Z,91.49
2023-04-28T06:31:43.455Z,91.00
2023-04-28T06:34:11.056Z,90.37
2023-04-28T06:36:38.032Z,89.78
2023-04-28T06:39:05.142Z,88.93
2023-04-28T06:41:33.822Z,87.47
2023-04-28T06:44:02.761Z,86.11
2023-04-28T06:46:31.751Z,85.30
2023-04-28T06:48:58.783Z,84.17
2023-04-28T06:51:27.015Z,83.17
2023-04-28T06:53:54.278Z,81.43
2023-04-28T06:56:21.257Z,80.31
2023-04-28T06:58:48.771Z,78.97
2023-04-28T07:01:16.129Z,79.09
2023-04-28T07:03:43.228Z,77.79
2023-04-28T07:06:11.646Z,76.46
2023-04-28T07:08:38.711Z,76.05
2023-04-28T07:11:06.470Z,74.86
2023-04-28T07:13:33.708Z,74.17
2023-04-28T07:16:01.061Z,72.70
2023-04-28T07:18:28.702Z,71.57
2023-04-28T07:20:55.853Z,70.98
2023-04-28T07:23:22.969Z,70.57
2023-04-28T07:25:49.953Z,69.91
2023-04-28T07:28:17.279Z,68.99
2023-04-28T07:30:44.334Z,68.88
2023-04-28T07:33:11.589Z,68.93
2023-04-28T07:35:38.584Z,68.97
2023-04-28T07:38:05.666Z,69.21
2023-04-28T07:40:32.910Z,69.23
2023-04-28T07:42:59.909Z,69.52
2023-04-28T07:45:27.266Z,68.95
2023-04-28T07:47:54.484Z,68.99
2023-04-28T07:50:21.597Z,69.70
2023-04-28T07:52:49.127Z,69.96
2023-04-28T07:55:16.532Z,70.12
2023-04-28T07:57:43.516Z,70.07
2023-04-28T08:00:12.136Z,70.27
2023-04-28T08:02:40.046Z,70.13
2023-04-28T08:05:10.161Z,69.71
2023-04-28T08:07:38.158Z,69.67
2023-04-28T08:10:05.695Z,69.50
2023-04-28T08:12:33.098Z,69.35
2023-04-28T08:15:00.352Z,69.34
2023-04-28T08:17:27.914Z,69.41
2023-04-28T08:19:55.206Z,69.45
2023-04-28T08:22:22.493Z,69.37
2023-04-28T08:24:49.593Z,69.54
2023-04-28T08:27:16.685Z,69.65
2023-04-28T08:29:43.656Z,69.75
2023-04-28T08:32:10.729Z,70.05
2023-04-28T08:34:37.766Z,70.51
2023-04-28T08:37:05.164Z,70.11
2023-04-28T08:39:34.384Z,69.85
2023-04-28T08:42:07.454Z,70.04
2023-04-28T08:44:40.644Z,70.17
2023-04-28T08:47:14.508Z,69.63
2023-04-28T08:49:41.748Z,70.13
2023-04-28T08:52:13.052Z,69.39
2023-04-28T08:54:41.128Z,68.68
2023-04-28T08:57:11.057Z,67.94
2023-04-28T08:59:39.950Z,66.99
2023-04-28T09:02:08.778Z,66.24
2023-04-28T09:04:36.220Z,66.63
2023-04-28T09:07:04.038Z,66.91
2023-04-28T09:09:34.235Z,66.93
2023-04-28T09:12:04.204Z,67.09
2023-04-28T09:14:35.447Z,66.80
2023-04-28T09:17:03.074Z,66.66
2023-04-28T09:19:34.473Z,67.14
2023-04-28T09:22:05.691Z,67.17
2023-04-28T09:24:43.136Z,67.45
2023-04-28T09:27:12.012Z,67.83
2023-04-28T09:29:39.622Z,68.21
2023-04-28T09:32:17.213Z,68.52
2023-04-28T09:34:45.726Z,69.03
2023-04-28T09:37:27.311Z,69.15
2023-04-28T09:39:55.060Z,69.08
2023-04-28T09:42:41.916Z,68.60
2023-04-28T09:45:09.778Z,68.97
2023-04-28T09:47:41.829Z,68.92
2023-04-28T09:50:11.837Z,68.96
2023-04-28T09:52:38.983Z,69.51
2023-04-28T09:55:08.822Z,69.98
2023-04-28T09:57:36.391Z,70.05
2023-04-28T10:00:06.679Z,70.51
2023-04-28T10:05:13.118Z,70.34
2023-04-28T10:07:40.652Z,69.96
2023-04-28T10:10:08.139Z,70.20
2023-04-28T10:12:38.435Z,70.43
2023-04-28T10:15:07.696Z,70.65
2023-04-28T10:17:35.171Z,71.01
2023-04-28T10:20:03.342Z,71.48
2023-04-28T10:22:59.871Z,71.26
2023-04-28T10:25:35.378Z,71.10
2023-04-28T10:28:06.130Z,71.71
2023-04-28T10:30:34.152Z,73.08
2023-04-28T10:33:13.631Z,74.99
2023-04-28T10:35:42.957Z,76.51
2023-04-28T10:38:21.528Z,77.89
2023-04-28T10:40:49.387Z,77.99
2023-04-28T10:43:25.448Z,78.66
2023-04-28T10:46:01.973Z,80.04
2023-04-28T10:48:30.092Z,81.55
2023-04-28T10:51:13.069Z,83.97
2023-04-28T10:53:43.725Z,86.19
2023-04-28T10:56:11.744Z,88.25
2023-04-28T10:58:42.914Z,89.93
2023-04-28T11:01:19.249Z,91.33
2023-04-28T11:03:50.495Z,91.87
2023-04-28T11:06:32.270Z,93.01
2023-04-28T11:09:02.737Z,94.21
2023-04-28T11:11:38.971Z,94.88
2023-04-28T11:14:21.227Z,94.77
2023-04-28T11:17:04.716Z,94.83
2023-04-28T11:19:36.569Z,95.29
2023-04-28T11:22:11.759Z,96.10
2023-04-28T11:24:39.198Z,96.27
2023-04-28T11:27:06.697Z,96.79
2023-04-28T11:29:40.381Z,97.62
2023-04-28T11:32:09.200Z,97.73
2023-04-28T11:34:37.464Z,98.73
2023-04-28T11:37:07.344Z,98.94
2023-04-28T11:39:34.747Z,99.57
2023-04-28T11:42:03.286Z,100.00
2023-04-28T11:44:31.434Z,100.00
2023-04-28T11:47:03.678Z,100.00
2023-04-28T11:49:44.653Z,100.00
2023-04-28T11:52:12.219Z,100.00
2023-04-28T11:54:39.983Z,100.00
2023-04-28T11:57:07.471Z,100.00
2023-04-28T11:59:35.726Z,100.00
2023-04-28T12:02:07.175Z,100.00
2023-04-28T12:04:41.784Z,100.00
2023-04-28T12:07:18.790Z,100.00
2023-04-28T12:09:48.453Z,100.00
2023-04-28T12:12:40.008Z,100.00
2023-04-28T12:15:13.354Z,100.00
2023-04-28T12:17:41.976Z,100.00
2023-04-28T12:20:13.539Z,100.00
2023-04-28T12:22:48.474Z,100.00
2023-04-28T12:25:17.977Z,100.00
2023-04-28T12:28:07.866Z,100.00
2023-04-28T12:30:39.285Z,100.00
2023-04-28T12:33:06.594Z,100.00
2023-04-28T12:35:33.895Z,100.00
2023-04-28T12:38:01.282Z,100.00
2023-04-28T12:40:28.746Z,100.00
2023-04-28T12:42:56.837Z,100.00
2023-04-28T12:45:24.073Z,100.00
2023-04-28T12:47:51.586Z,100.00
2023-04-28T12:50:18.970Z,100.00
2023-04-28T12:52:46.199Z,100.00
2023-04-28T12:55:13.604Z,100.00
2023-04-28T12:57:40.923Z,100.00
2023-04-28T13:00:08.948Z,100.00
2023-04-28T13:02:37.154Z,100.00
2023-04-28T13:05:04.668Z,100.00
2023-04-28T13:07:32.223Z,100.00
2023-04-28T13:10:00.578Z,100.00
2023-04-28T13:12:28.008Z,99.75
2023-04-28T13:14:55.423Z,99.17
2023-04-28T13:17:23.031Z,98.69
2023-04-28T13:19:50.493Z,98.63
2023-04-28T13:22:17.935Z,98.90
2023-04-28T13:24:45.371Z,99.49
2023-04-28T13:27:12.774Z,100.00
2023-04-28T13:29:40.213Z,100.00
2023-04-28T13:32:07.279Z,100.00
2023-04-28T13:34:34.563Z,100.00
2023-04-28T13:37:01.580Z,100.00
2023-04-28T13:39:28.684Z,100.00
2023-04-28T13:41:55.639Z,100.00
2023-04-28T13:44:22.725Z,100.00
2023-04-28T13:46:49.881Z,100.00
2023-04-28T13:49:17.113Z,100.00
2023-04-28T13:51:45.718Z,100.00
2023-04-28T13:54:13.132Z,100.00
2023-04-28T13:56:40.378Z,100.00
2023-04-28T13:59:07.729Z,100.00
2023-04-28T14:01:34.847Z,100.00
2023-04-28T14:04:02.397Z,100.00
2023-04-28T14:06:29.634Z,100.00
2023-04-28T14:08:56.733Z,100.00
2023-04-28T14:11:23.818Z,100.00
2023-04-28T14:13:50.988Z,100.00
2023-04-28T14:16:18.290Z,100.00
2023-04-28T14:18:45.310Z,100.00
2023-04-28T14:21:12.389Z,100.00
2023-04-28T14:23:39.457Z,100.00
2023-04-28T14:26:06.995Z,100.00
2023-04-28T14:28:34.095Z,100.00
2023-04-28T14:31:06.454Z,100.00
2023-04-28T14:33:33.538Z,100.00
2023-04-28T14:36:02.237Z,100.00
2023-04-28T14:38:30.718Z,100.00
2023-04-28T14:40:57.885Z,100.00
2023-04-28T14:43:25.073Z,100.00
2023-04-28T14:45:52.504Z,100.00
2023-04-28T14:48:20.223Z,100.00
2023-04-28T14:50:47.707Z,100.00
2023-04-28T14:53:14.713Z,100.00
2023-04-28T14:55:41.706Z,100.00
2023-04-28T14:58:08.680Z,100.00
2023-04-28T15:00:36.061Z,100.00
2023-04-28T15:03:04.100Z,100.00
2023-04-28T15:05:31.236Z,100.00
2023-04-28T15:07:58.306Z,100.00
2023-04-28T15:10:25.264Z,100.00
2023-04-28T15:12:52.351Z,100.00
2023-04-28T15:15:19.305Z,100.00
2023-04-28T15:17:46.367Z,100.00
2023-04-28T15:20:13.451Z,100.00
2023-04-28T15:22:41.038Z,100.00
2023-04-28T15:25:08.445Z,100.00
2023-04-28T15:27:35.508Z,100.00
2023-04-28T15:30:02.715Z,100.00
2023-04-28T15:32:32.568Z,100.00
2023-04-28T15:35:00.445Z,100.00
2023-04-28T15:37:43.882Z,100.00
2023-04-28T15:40:12.890Z,100.00
2023-04-28T15:42:42.292Z,100.00
2023-04-28T15:45:10.513Z,100.00
2023-04-28T15:47:39.222Z,100.00
2023-04-28T15:50:09.030Z,100.00
2023-04-28T15:52:38.671Z,100.00
2023-04-28T15:55:06.974Z,100.00
2023-04-28T15:57:34.602Z,100.00
2023-04-28T16:00:01.772Z,100.00
2023-04-28T16:02:35.414Z,100.00
2023-04-28T16:05:05.299Z,100.00
2023-04-28T16:07:38.072Z,100.00
2023-04-28T16:10:10.419Z,100.00
2023-04-28T16:12:38.679Z,100.00
2023-04-28T16:15:07.177Z,100.00
2023-04-28T16:17:36.073Z,100.00
2023-04-28T16:20:06.073Z,100.00
2023-04-28T16:22:33.972Z,100.00
2023-04-28T16:25:03.673Z,100.00
2023-04-28T16:27:33.312Z,100.00
2023-04-28T16:30:00.645Z,100.00
2023-04-28T16:32:27.840Z,100.00
2023-04-28T16:34:57.478Z,100.00
2023-04-28T16:37:24.376Z,100.00
2023-04-28T16:39:51.548Z,100.00
2023-04-28T16:42:21.190Z,100.00
2023-04-28T16:44:49.512Z,100.00
2023-04-28T16:47:17.539Z,100.00
2023-04-28T16:49:44.561Z,100.00
2023-04-28T16:52:11.589Z,100.00
2023-04-28T16:54:38.639Z,100.00
2023-04-28T16:57:06.438Z,100.00
2023-04-28T16:59:34.177Z,100.00
2023-04-28T17:02:02.073Z,100.00
2023-04-28T17:04:29.599Z,100.00
2023-04-28T17:06:57.013Z,100.00
2023-04-28T17:09:24.054Z,100.00
2023-04-28T17:11:51.451Z,100.00
2023-04-28T17:14:18.488Z,100.00
2023-04-28T17:16:45.862Z,100.00
2023-04-28T17:19:12.953Z,100.00
2023-04-28T17:21:40.133Z,100.00
2023-04-28T17:24:07.266Z,100.00
2023-04-28T17:26:34.520Z,100.00
2023-04-28T17:29:02.474Z,100.00
2023-04-28T17:31:29.726Z,100.00
2023-04-28T17:33:57.866Z,100.00
2023-04-28T17:36:27.411Z,100.00
2023-04-28T17:38:55.182Z,100.00
2023-04-28T17:41:22.887Z,100.00
2023-04-28T17:43:52.008Z,100.00
2023-04-28T17:46:19.207Z,100.00
2023-04-28T17:48:46.381Z,100.00
2023-04-28T17:51:13.305Z,100.00
2023-04-28T17:53:40.415Z,100.00
2023-04-28T17:56:08.275Z,100.00
2023-04-28T17:58:36.463Z,100.00
2023-04-28T18:01:04.176Z,100.00
2023-04-28T18:03:32.505Z,100.00
2023-04-28T18:05:59.737Z,100.00
2023-04-28T18:08:26.720Z,100.00
2023-04-28T18:10:53.803Z,100.00
2023-04-28T18:13:20.695Z,100.00
2023-04-28T18:15:47.989Z,100.00
2023-04-28T18:18:15.123Z,100.00
2023-04-28T18:20:42.324Z,100.00
2023-04-28T18:23:09.831Z,100.00
2023-04-28T18:25:37.182Z,100.00
2023-04-28T18:28:04.898Z,100.00
2023-04-28T18:30:37.980Z,100.00
2023-04-28T18:33:08.746Z,100.00
2023-04-28T18:35:37.034Z,100.00
2023-04-28T18:38:05.171Z,100.00
2023-04-28T18:40:37.781Z,100.00
2023-04-28T18:43:06.043Z,100.00
2023-04-28T18:45:39.277Z,100.00
2023-04-28T18:48:07.483Z,100.00
2023-04-28T18:50:36.386Z,100.00
2023-04-28T18:53:04.464Z,100.00
2023-04-28T18:55:34.553Z,100.00
2023-04-28T18:58:04.655Z,100.00
2023-04-28T19:00:32.886Z,100.00
2023-04-28T19:03:01.857Z,100.00
2023-04-28T19:05:30.523Z,100.00
2023-04-28T19:07:57.547Z,100.00
2023-04-28T19:10:24.714Z,100.00
2023-04-28T19:12:52.134Z,100.00
2023-04-28T19:15:19.458Z,100.00
2023-04-28T19:17:46.796Z,100.00
2023-04-28T19:20:14.171Z,100.00
2023-04-28T19:22:41.561Z,100.00
2023-04-28T19:25:09.148Z,100.00
2023-04-28T19:27:37.702Z,100.00
2023-04-28T19:30:06.301Z,100.00
2023-04-28T19:32:33.639Z,100.00
2023-04-28T19:35:03.188Z,100.00
2023-04-28T19:37:35.688Z,100.00
2023-04-28T19:40:04.909Z,100.00
2023-04-28T19:42:33.224Z,100.00
2023-04-28T19:45:00.288Z,100.00
2023-04-28T19:47:28.554Z,100.00
2023-04-28T19:49:55.885Z,100.00
2023-04-28T19:52:23.249Z,100.00
2023-04-28T19:54:50.654Z,100.00
2023-04-28T19:57:18.709Z,100.00
2023-04-28T19:59:46.708Z,100.00
2023-04-28T20:02:14.167Z,100.00
2023-04-28T20:04:41.568Z,100.00
2023-04-28T20:07:09.339Z,100.00
2023-04-28T20:09:37.357Z,100.00
2023-04-28T20:12:05.508Z,100.00
2023-04-28T20:14:32.651Z,100.00
2023-04-28T20:17:00.589Z,100.00
2023-04-28T20:19:27.747Z,100.00
2023-04-28T20:21:54.831Z,100.00
2023-04-28T20:24:21.987Z,100.00
2023-04-28T20:26:50.764Z,100.00
2023-04-28T20:29:17.993Z,100.00
2023-04-28T20:31:45.082Z,100.00
2023-04-28T20:34:13.358Z,100.00
2023-04-28T20:36:42.686Z,100.00
2023-04-28T20:39:11.799Z,100.00
2023-04-28T20:41:41.094Z,100.00
2023-04-28T20:44:08.697Z,100.00
2023-04-28T20:46:36.165Z,100.00
2023-04-28T20:49:04.387Z,100.00
2023-04-28T20:51:34.215Z,100.00
2023-04-28T20:54:01.528Z,100.00
2023-04-28T20:56:28.684Z,100.00
2023-04-28T20:58:55.921Z,100.00
2023-04-28T21:01:23.271Z,100.00
2023-04-28T21:03:50.728Z,100.00
2023-04-28T21:06:17.862Z,100.00
2023-04-28T21:08:45.233Z,100.00
2023-04-28T21:11:13.188Z,100.00
2023-04-28T21:13:42.698Z,100.00
2023-04-28T21:16:20.240Z,100.00
2023-04-28T21:18:49.268Z,100.00
2023-04-28T21:21:16.601Z,100.00
2023-04-28T21:23:44.403Z,100.00
2023-04-28T21:26:11.463Z,100.00
2023-04-28T21:28:39.962Z,100.00
2023-04-28T21:31:07.339Z,100.00
2023-04-28T21:33:34.361Z,100.00
2023-04-28T21:36:05.578Z,100.00
2023-04-28T21:38:33.341Z,100.00
2023-04-28T21:41:00.745Z,100.00
2023-04-28T21:43:27.722Z,100.00
2023-04-28T21:45:54.754Z,100.00
2023-04-28T21:48:21.735Z,100.00
2023-04-28T21:50:48.892Z,100.00
2023-04-28T21:53:15.838Z,100.00
2023-04-28T21:55:44.545Z,100.00
2023-04-28T21:58:11.728Z,100.00
2023-04-28T22:00:43.567Z,100.00
2023-04-28T22:03:10.749Z,100.00
2023-04-28T22:05:39.581Z,100.00
2023-04-28T22:08:06.642Z,100.00
2023-04-28T22:10:34.153Z,100.00
2023-04-28T22:13:01.553Z,100.00
2023-04-28T22:15:28.742Z,100.00
2023-04-28T22:17:55.900Z,100.00
2023-04-28T22:20:22.973Z,100.00
2023-04-28T22:22:49.952Z,100.00
2023-04-28T22:25:17.488Z,100.00
2023-04-28T22:27:44.403Z,100.00
2023-04-28T22:30:11.841Z,100.00
2023-04-28T22:32:38.875Z,100.00
2023-04-28T22:35:06.346Z,100.00
2023-04-28T22:37:34.134Z,100.00
2023-04-28T22:40:01.296Z,100.00
2023-04-28T22:42:31.340Z,100.00
2023-04-28T22:44:58.507Z,100.00
2023-04-28T22:47:25.427Z,100.00
2023-04-28T22:49:52.721Z,100.00
2023-04-28T22:52:21.437Z,100.00
2023-04-28T22:54:49.129Z,100.00
2023-04-28T22:57:16.387Z,100.00
2023-04-28T22:59:43.524Z,100.00
2023-04-28T23:02:12.397Z,100.00
2023-04-28T23:04:40.246Z,100.00
2023-04-28T23:07:07.791Z,100.00
2023-04-28T23:09:36.273Z,100.00
2023-04-28T23:12:04.124Z,100.00
2023-04-28T23:14:32.635Z,100.00
2023-04-28T23:16:59.667Z,100.00
2023-04-28T23:19:26.665Z,100.00
2023-04-28T23:21:54.486Z,100.00
2023-04-28T23:24:21.420Z,100.00
2023-04-28T23:26:48.379Z,100.00
2023-04-28T23:29:15.392Z,100.00
2023-04-28T23:31:42.420Z,100.00
2023-04-28T23:34:09.523Z,100.00
2023-04-28T23:36:37.883Z,100.00
2023-04-28T23:39:04.960Z,100.00
2023-04-28T23:41:31.934Z,100.00
2023-04-28T23:43:58.848Z,100.00
2023-04-28T23:46:25.929Z,100.00
2023-04-28T23:48:52.890Z,100.00
2023-04-28T23:51:19.907Z,100.00
2023-04-28T23:53:46.960Z,100.00
2023-04-28T23:56:14.021Z,100.00
2023-04-28T23:58:41.920Z,100.00
